Time;durP1;ratioP1;P1;durP2;ratioP2;P2;SDS_P1;SDS_P2;PMS_P1;PMS_P2;Temp;Humidity;BMP_temperature;BMP_pressure;BME280_temperature;BME280_humidity;BME280_pressure;Samples;Min_cycle;Max_cycle;Signal;HPM_P1;HPM_P2
2023/02/01 05:53:27;;;;;;;12.50;6.30;;;3.20;99.90;;;;;;7616869;19;21184;-70
2023/02/01 05:56:00;;;;;;;11.43;6.28;;;3.30;99.90;;;;;;7601279;19;21228;-70
2023/02/01 05:58:33;;;;;;;12.02;6.53;;;3.30;99.90;;;;;;7617344;19;20015;-71
2023/02/01 06:01:05;;;;;;;13.75;6.20;;;3.40;99.90;;;;;;7622526;19;20022;-70
2023/02/01 06:03:37;;;;;;;12.30;6.65;;;3.50;99.90;;;;;;7615330;19;20025;-71
2023/02/01 06:06:10;;;;;;;10.57;5.75;;;3.50;99.90;;;;;;7615164;19;20014;-70
2023/02/01 06:08:42;;;;;;;10.73;6.53;;;3.60;99.90;;;;;;7591105;19;20037;-70
2023/02/01 06:11:14;;;;;;;11.23;6.53;;;3.60;99.90;;;;;;7569565;19;20530;-70
2023/02/01 06:14:02;;;;;;;10.63;4.93;;;3.60;99.90;;;;;;7534883;19;20117;-71
2023/02/01 06:16:35;;;;;;;11.40;5.47;;;3.80;99.90;;;;;;7608457;19;20029;-69
2023/02/01 06:19:08;;;;;;;10.35;6.72;;;3.80;99.90;;;;;;7616274;19;20331;-70
2023/02/01 06:21:40;;;;;;;12.43;6.40;;;3.80;99.90;;;;;;7616326;19;20072;-70
2023/02/01 06:24:13;;;;;;;11.40;7.18;;;3.90;99.90;;;;;;7602694;19;20019;-69
2023/02/01 15:10:08;;;;;;;8.38;3.88;;;4.40;98.70;;;;;;7630202;19;20374;-75
2023/02/01 15:12:44;;;;;;;8.27;4.20;;;4.40;99.70;;;;;;7636036;19;20434;-75
2023/02/01 15:15:23;;;;;;;7.45;3.80;;;4.40;99.20;;;;;;7595109;19;20018;-75
2023/02/01 15:18:01;;;;;;;7.80;4.13;;;4.50;99.90;;;;;;7621449;19;20026;-76
2023/02/01 15:20:34;;;;;;;9.38;3.58;;;4.50;99.90;;;;;;7609236;19;20839;-75
2023/02/01 15:23:17;;;;;;;6.70;3.30;;;4.50;99.70;;;;;;7631551;19;20042;-75
2023/02/01 15:25:49;;;;;;;13.52;3.63;;;4.50;99.90;;;;;;7637867;19;20015;-75
2023/02/01 15:28:26;;;;;;;7.55;2.53;;;4.40;99.90;;;;;;7617413;19;20018;-74
2023/02/01 15:31:04;;;;;;;13.98;4.25;;;4.50;99.90;;;;;;7620722;19;20520;-75
2023/02/01 15:33:36;;;;;;;15.00;4.20;;;4.50;99.90;;;;;;7627730;19;20014;-75
2023/02/01 15:36:22;;;;;;;9.25;4.00;;;4.40;99.90;;;;;;7640626;19;20025;-75
2023/02/01 15:39:18;;;;;;;9.80;4.25;;;4.40;99.90;;;;;;7634824;19;20383;-75
2023/02/01 15:41:54;;;;;;;11.07;3.80;;;4.30;99.90;;;;;;7635107;19;20018;-74
2023/02/01 15:44:40;;;;;;;13.00;4.82;;;4.30;99.90;;;;;;7641805;19;20026;-75
2023/02/01 15:47:18;;;;;;;15.60;5.10;;;4.20;99.90;;;;;;7637557;19;20022;-75
2023/02/01 15:49:56;;;;;;;12.00;5.75;;;4.00;99.90;;;;;;7627103;19;20010;-74
2023/02/01 15:52:39;;;;;;;10.68;5.47;;;3.80;99.90;;;;;;7620160;19;20677;-75
2023/02/01 15:55:24;;;;;;;10.30;5.93;;;3.70;99.90;;;;;;7610718;19;20018;-72
2023/02/01 15:57:57;;;;;;;13.50;5.65;;;3.70;99.90;;;;;;7616571;19;20551;-72
2023/02/01 16:01:02;;;;;;;9.98;5.07;;;3.80;99.90;;;;;;7624083;19;20014;-72
2023/02/01 16:03:43;;;;;;;12.13;5.47;;;3.70;99.90;;;;;;7602937;19;20952;-71
2023/02/01 16:06:21;;;;;;;11.70;5.60;;;3.70;99.90;;;;;;7613090;19;20073;-71
2023/02/01 16:09:23;;;;;;;13.43;5.93;;;3.70;99.90;;;;;;7602942;19;20025;-72
2023/02/01 16:12:01;;;;;;;11.13;4.95;;;3.70;99.90;;;;;;7499624;19;20014;-71
2023/02/01 16:14:33;;;;;;;9.13;4.28;;;3.70;99.90;;;;;;7577715;19;21222;-71
2023/02/01 16:17:05;;;;;;;12.15;4.15;;;3.80;99.90;;;;;;7557204;19;20031;-72
2023/02/01 16:19:38;;;;;;;11.95;3.92;;;3.80;99.90;;;;;;7565560;19;20425;-72
2023/02/01 16:22:10;;;;;;;13.55;5.13;;;3.90;99.90;;;;;;7541603;19;20021;-72
2023/02/01 16:24:42;;;;;;;15.45;6.78;;;3.90;99.90;;;;;;7563040;19;20018;-72
2023/02/01 16:27:14;;;;;;;15.88;8.43;;;3.90;99.90;;;;;;7541495;19;22281;-73
2023/02/01 16:29:47;;;;;;;15.18;6.25;;;3.80;99.90;;;;;;7540451;19;20032;-71
2023/02/01 16:32:20;;;;;;;12.52;6.10;;;3.90;99.90;;;;;;7527169;19;20015;-73
2023/02/01 16:34:53;;;;;;;14.80;5.18;;;3.90;99.90;;;;;;7518351;19;20052;-73
2023/02/01 16:37:27;;;;;;;13.38;3.22;;;3.80;99.90;;;;;;7542807;19;20529;-72
2023/02/01 16:39:59;;;;;;;12.82;4.40;;;3.90;99.90;;;;;;7501856;19;20018;-72
2023/02/01 16:42:32;;;;;;;9.90;3.70;;;4.00;99.90;;;;;;7527118;19;20021;-73
2023/02/01 16:45:05;;;;;;;13.40;3.75;;;4.00;99.90;;;;;;7535716;19;20014;-72
2023/02/01 16:47:40;;;;;;;6.80;4.03;;;4.10;99.90;;;;;;7529894;19;20121;-72
2023/02/01 16:50:16;;;;;;;9.93;3.55;;;4.10;99.90;;;;;;7500365;19;20827;-71
2023/02/01 16:52:54;;;;;;;10.20;4.28;;;4.00;99.90;;;;;;7551507;19;20873;-72
2023/02/01 16:55:27;;;;;;;9.05;4.00;;;4.10;99.90;;;;;;7567073;19;20015;-71
2023/02/01 16:58:00;;;;;;;9.75;3.78;;;4.10;99.90;;;;;;7568855;19;21256;-71
2023/02/01 17:00:36;;;;;;;14.73;4.38;;;4.00;99.90;;;;;;7579577;19;20014;-71
2023/02/01 17:03:16;;;;;;;8.63;3.33;;;4.10;99.90;;;;;;7544280;19;20678;-72
2023/02/01 17:05:54;;;;;;;13.45;4.10;;;4.20;99.90;;;;;;7568101;19;20813;-72
2023/02/01 17:08:31;;;;;;;12.27;4.25;;;4.30;99.90;;;;;;7532417;19;20025;-70
2023/02/01 17:11:07;;;;;;;10.55;3.75;;;4.30;99.90;;;;;;7545147;19;20957;-71
2023/02/01 17:13:41;;;;;;;7.97;3.55;;;4.30;99.30;;;;;;7554897;19;20034;-71
2023/02/01 17:16:22;;;;;;;13.20;3.42;;;4.20;99.80;;;;;;7533703;19;20891;-72
2023/02/01 17:19:02;;;;;;;13.52;3.80;;;4.30;98.00;;;;;;7555500;19;20020;-72
2023/02/01 17:21:48;;;;;;;12.15;3.85;;;4.30;97.40;;;;;;7582065;19;20099;-71
2023/02/01 17:24:25;;;;;;;9.65;3.13;;;4.30;97.30;;;;;;7568796;19;20022;-72
2023/02/01 17:27:07;;;;;;;12.70;3.72;;;4.30;96.30;;;;;;7508947;19;20015;-72
2023/02/01 17:29:42;;;;;;;12.18;3.97;;;4.40;95.30;;;;;;7528506;19;20549;-71
2023/02/01 17:32:21;;;;;;;12.80;3.67;;;4.50;94.60;;;;;;7538896;19;20331;-70
2023/02/01 17:34:54;;;;;;;11.55;2.50;;;4.40;95.20;;;;;;7535274;19;20010;-70
2023/02/01 17:37:31;;;;;;;11.23;3.88;;;4.40;95.20;;;;;;7531281;19;20064;-70
2023/02/01 17:40:03;;;;;;;12.82;4.63;;;4.60;94.30;;;;;;7521160;19;20061;-70
2023/02/01 17:42:36;;;;;;;20.00;5.18;;;4.50;94.20;;;;;;7535633;19;20065;-69
2023/02/01 17:45:31;;;;;;;11.95;3.72;;;4.50;94.00;;;;;;7498510;19;22389;-70
2023/02/01 17:48:05;;;;;;;7.72;2.88;;;4.50;94.40;;;;;;7507307;19;20094;-70
2023/02/01 17:50:38;;;;;;;7.47;2.55;;;4.60;93.10;;;;;;7497810;19;20940;-69
2023/02/01 17:53:12;;;;;;;15.07;4.47;;;4.60;93.10;;;;;;7526309;19;20018;-70
2023/02/01 17:55:47;;;;;;;8.65;2.88;;;4.50;93.60;;;;;;7491699;19;20018;-72
2023/02/01 17:58:20;;;;;;;8.10;3.65;;;4.60;93.20;;;;;;7547711;19;20121;-71
2023/02/01 18:00:53;;;;;;;11.98;3.40;;;4.60;93.30;;;;;;7567716;19;20815;-71
2023/02/01 18:03:30;;;;;;;6.78;2.80;;;4.60;92.50;;;;;;7546312;19;20025;-71
2023/02/01 18:06:03;;;;;;;10.15;3.42;;;4.60;92.60;;;;;;7514943;19;20095;-70
2023/02/01 18:08:35;;;;;;;11.80;3.67;;;4.60;92.10;;;;;;7491802;19;20877;-71
2023/02/01 18:11:12;;;;;;;9.80;3.28;;;4.60;92.90;;;;;;7527981;19;20015;-71
2023/02/01 18:13:47;;;;;;;14.60;3.33;;;4.60;91.80;;;;;;7527439;19;20142;-76
2023/02/01 18:16:21;;;;;;;;;;;4.60;92.50;;;;;;7500152;19;21018;-75
2023/02/01 18:19:00;;;;;;;12.82;3.85;;;4.60;91.60;;;;;;7520614;19;19922;-74
2023/02/01 18:21:35;;;;;;;11.32;3.22;;;4.70;91.00;;;;;;7506687;19;21030;-72
2023/02/01 18:24:18;;;;;;;12.48;3.28;;;4.60;91.60;;;;;;7526380;19;20025;-73
2023/02/01 18:26:50;;;;;;;13.00;3.63;;;4.60;91.00;;;;;;7518276;19;20018;-71
2023/02/01 18:29:23;;;;;;;22.33;3.58;;;4.60;91.10;;;;;;7555109;19;20018;-71
2023/02/01 18:31:55;;;;;;;15.75;4.35;;;4.60;90.50;;;;;;7537547;19;20113;-73
2023/02/01 18:34:28;;;;;;;15.15;3.22;;;4.70;91.20;;;;;;7528511;19;20022;-73
2023/02/01 18:37:01;;;;;;;;;;;4.70;91.00;;;;;;7543816;19;20018;-72
2023/02/01 18:39:33;;;;;;;10.57;3.60;;;4.70;90.80;;;;;;7534429;19;20292;-73
2023/02/01 18:42:05;;;;;;;20.00;4.05;;;4.60;90.90;;;;;;7543272;19;20014;-73
2023/02/01 18:44:37;;;;;;;17.38;4.63;;;4.70;90.90;;;;;;7528507;19;21718;-72
2023/02/01 18:47:09;;;;;;;13.70;3.67;;;4.60;90.70;;;;;;7522821;19;20025;-73
2023/02/01 18:49:41;;;;;;;9.93;3.63;;;4.70;90.40;;;;;;7576923;19;20033;-73
2023/02/01 18:52:13;;;;;;;11.02;3.35;;;4.70;90.00;;;;;;7568324;19;20340;-73
2023/02/01 18:54:46;;;;;;;14.52;3.58;;;4.80;89.80;;;;;;7551502;19;20162;-72
2023/02/01 18:57:32;;;;;;;12.70;4.22;;;4.90;88.50;;;;;;7564576;19;20533;-73
2023/02/01 19:00:06;;;;;;;9.27;3.72;;;4.70;90.20;;;;;;7553593;19;20010;-73
2023/02/01 19:02:38;;;;;;;9.07;3.53;;;4.70;89.70;;;;;;7554182;19;20057;-75
2023/02/01 19:05:13;;;;;;;13.00;3.80;;;4.70;89.80;;;;;;7556324;19;20109;-74
2023/02/01 19:07:45;;;;;;;;;;;4.70;90.10;;;;;;7539561;19;20423;-73
2023/02/01 19:10:22;;;;;;;15.20;4.03;;;4.70;90.00;;;;;;7533097;19;20042;-73
2023/02/01 19:12:54;;;;;;;8.48;3.55;;;4.70;89.20;;;;;;7565822;19;19919;-72
2023/02/01 19:15:27;;;;;;;15.25;3.38;;;4.80;88.70;;;;;;7554805;19;20070;-71
2023/02/01 19:17:59;;;;;;;11.55;3.67;;;4.70;89.30;;;;;;7528553;19;20022;-72
2023/02/01 19:20:32;;;;;;;21.40;4.13;;;4.70;89.20;;;;;;7542948;19;20014;-72
2023/02/01 19:23:04;;;;;;;13.38;5.03;;;4.70;89.00;;;;;;7543814;19;20023;-72
2023/02/01 19:25:36;;;;;;;11.73;3.97;;;4.60;90.00;;;;;;7544907;19;20939;-73
2023/02/01 19:28:09;;;;;;;14.95;4.05;;;4.70;88.30;;;;;;7538529;19;20046;-73
2023/02/01 19:30:41;;;;;;;13.30;4.00;;;4.70;88.90;;;;;;7542110;19;20018;-72
2023/02/01 19:33:15;;;;;;;12.25;3.83;;;4.70;89.10;;;;;;7528171;19;20478;-73
2023/02/01 19:35:47;;;;;;;12.32;3.45;;;4.70;88.30;;;;;;7515903;19;20034;-74
2023/02/01 19:38:20;;;;;;;13.18;3.53;;;4.70;88.90;;;;;;7541343;19;21168;-72
2023/02/01 19:40:54;;;;;;;11.77;3.20;;;4.80;87.80;;;;;;7521178;19;20138;-73
2023/02/01 19:43:26;;;;;;;15.32;3.70;;;4.70;89.10;;;;;;7531586;19;20045;-72
2023/02/01 19:46:01;;;;;;;9.07;3.80;;;4.80;87.60;;;;;;7533648;19;20019;-74
2023/02/01 19:48:34;;;;;;;11.45;4.43;;;4.80;88.20;;;;;;7550513;19;20010;-73
2023/02/01 19:51:09;;;;;;;17.50;5.07;;;4.60;89.00;;;;;;7533632;19;20493;-73
2023/02/01 19:53:43;;;;;;;9.50;3.38;;;4.70;88.90;;;;;;7537214;19;20018;-73
2023/02/01 19:56:16;;;;;;;;;;;4.70;89.40;;;;;;7551176;19;20007;-72
2023/02/01 19:58:51;;;;;;;19.73;5.85;;;4.70;89.10;;;;;;7572712;19;20576;-73
2023/02/01 20:01:25;;;;;;;15.30;3.60;;;4.80;89.00;;;;;;7571108;19;20098;-73
2023/02/01 20:04:03;;;;;;;18.90;4.45;;;4.70;89.80;;;;;;7539801;19;20349;-74
2023/02/01 20:06:39;;;;;;;13.18;5.50;;;4.60;88.60;;;;;;7578282;19;20974;-72
2023/02/01 20:09:11;;;;;;;10.32;3.45;;;4.70;89.80;;;;;;7568937;19;20011;-73
2023/02/01 20:11:48;;;;;;;14.15;4.57;;;4.60;89.60;;;;;;7571427;19;20085;-73
2023/02/01 20:14:30;;;;;;;14.70;3.78;;;4.70;88.60;;;;;;6985248;19;10000838;-73
2023/02/01 20:17:02;;;;;;;17.40;2.72;;;4.80;88.90;;;;;;7560643;19;22528;-72
2023/02/01 20:19:35;;;;;;;13.43;4.67;;;4.80;88.50;;;;;;7530672;19;20014;-73
2023/02/01 20:22:07;;;;;;;16.88;5.00;;;4.70;88.50;;;;;;7549414;19;20024;-74
2023/02/01 20:24:39;;;;;;;14.27;4.45;;;4.70;89.00;;;;;;7573134;19;20010;-72
2023/02/01 20:27:11;;;;;;;11.15;3.92;;;4.80;88.30;;;;;;7567853;19;20017;-74
2023/02/01 20:29:44;;;;;;;19.53;4.20;;;4.80;87.80;;;;;;7557415;19;20117;-74
2023/02/01 20:32:16;;;;;;;15.00;3.75;;;4.70;88.20;;;;;;7572680;19;20069;-74
2023/02/01 20:34:53;;;;;;;13.25;3.95;;;4.70;88.80;;;;;;7558836;19;20858;-74
2023/02/01 20:37:25;;;;;;;14.27;4.75;;;4.70;88.50;;;;;;7564757;19;20094;-75
2023/02/01 20:39:57;;;;;;;14.73;4.50;;;4.70;88.20;;;;;;7567635;19;20022;-74
2023/02/01 20:42:29;;;;;;;13.25;3.63;;;4.70;89.00;;;;;;7567216;19;20026;-74
2023/02/01 20:45:03;;;;;;;10.27;3.60;;;4.70;89.10;;;;;;7563779;19;20058;-74
2023/02/01 20:47:35;;;;;;;19.08;4.05;;;4.80;88.50;;;;;;7564624;19;20022;-74
2023/02/01 20:50:09;;;;;;;16.02;3.33;;;4.80;88.40;;;;;;7552883;19;21210;-75
2023/02/01 20:52:41;;;;;;;14.90;4.68;;;4.80;88.60;;;;;;7556155;19;20028;-74
2023/02/01 20:55:13;;;;;;;20.13;4.25;;;4.80;88.20;;;;;;7562643;19;20057;-73
2023/02/01 20:57:45;;;;;;;16.17;4.85;;;4.80;88.10;;;;;;7566549;19;20038;-75
2023/02/01 21:00:21;;;;;;;10.07;3.85;;;4.80;88.30;;;;;;7565825;19;20010;-75
2023/02/01 21:02:53;;;;;;;10.32;3.50;;;4.80;89.00;;;;;;7554814;19;20014;-73
2023/02/01 21:05:38;;;;;;;9.70;2.75;;;4.80;90.30;;;;;;7574623;19;20021;-73
2023/02/01 21:08:11;;;;;;;11.48;3.60;;;4.80;90.20;;;;;;7568877;19;20021;-73
2023/02/01 21:10:53;;;;;;;10.48;3.78;;;4.80;90.30;;;;;;7561561;19;20019;-73
2023/02/01 21:13:29;;;;;;;12.35;3.90;;;4.70;90.60;;;;;;7556262;19;20014;-72
2023/02/01 21:16:02;;;;;;;14.55;3.13;;;4.70;90.80;;;;;;7548995;19;20066;-73
